Airport View

Enter AWOS ICAO identifier for current METAR.

ex. KFNL

KGGI 262155Z AUTO 34018G22KT 10SM CLR 00/M09 A3024 RMK AO2 T00001089

26 Feb 2020 21:46

Frequency: 120.725

Phone: 641-236-9720

Other Area AWOS: KTNU - KPEA - KMIW - KOXV

TAF AMD KOTM 261726Z 2617/2718 34017KT P6SM SCT030 TEMPO 2618/2620 BKN028 FM262200 33013KT P6SM FEW035 FM270200 32007KT P6SM FEW150 FM270700 VRB04KT P6SM FEW025 SCT120